Reubens, ID

7:16 PM PST on February 12, 2016 (GMT -0800)
Camas Prairie | | Change Station
CLOSE
Current Station
Personal Weather Station
Location: Reubens, ID
Elevation: 3480 ft
Nearby Weather Stations

Elev 3480 ft 46.35 °N, 116.53 °W | Updated 4 seconds ago

Partly Cloudy
Partly Cloudy
42.5 °F
Feels Like 41 °F
N
3.5
Wind Variable Wind from SSW
Gusts 3.5 mph

Today
High -- | Low -- °F
--% Chance of Precip.
Yesterday
High -- | Low -- °F
Precip. -- in
Pressure 30.11 in
Visibility 10.0 miles
Clouds Scattered Clouds 8500 ft
Windchill 41 °F
Dew Point 39 °F
Humidity 87%
Rainfall 0.00 in
Snow Depth Not available.
6:54 AM 5:06 PM
Waxing Crescent, 26% visible
METAR KGIC 130255Z AUTO 02003KT 10SM SCT085 06/03 A3011 RMK AO1
Pressure 30.11 in
Visibility 10.0 miles
Clouds Scattered Clouds 8500 ft
Windchill 41 °F
Dew Point 39 °F
Humidity 87%
Rainfall 0.00 in
Snow Depth Not available.
6:54 AM 5:06 PM
Waxing Crescent, 26% visible
METAR KGIC 130255Z AUTO 02003KT 10SM SCT085 06/03 A3011 RMK AO1

10-Day Weather Forecast

Almanac

Astronomy

Feb. 12, 2016 Rise Set
Actual Time
Civil Twilight
Nautical Twilight
Astronomical Twilight
Moon
Length of Visible Light
Length of Day
Tomorrow will be .
, % of the Moon is Illuminated

Today's Extremes

State Highs State Lows

Community

WunderPhotos

Upload Photos

1,892,480 photos uploaded!

WunderBlog® & News

Nearby

Air Quality

  Air Quality AQ Index Pollutant
Not available.

Snow Depth

Station Depth Elevation

Earthquake Activity

City Distance Mag. Time & Date
Minimum magnitude displayed is 2.5.

Coastal Water Temperatures

Place Temperature

Stations

Nearby Weather Stations

Station Location Temp. Windchill Dew Point Humidity Wind Precip. Elev Updated Type
                   

Watches & Warnings

There are currently no watches in effect.